Time;durP1;ratioP1;P1;durP2;ratioP2;P2;SDS_P1;SDS_P2;PMS_P1;PMS_P2;Temp;Humidity;BMP_temperature;BMP_pressure;BME280_temperature;BME280_humidity;BME280_pressure;Samples;Min_cycle;Max_cycle;Signal;HPM_P1;HPM_P2
2021/06/16 00:00:19;;;;;;;7.03;3.70;;;17.60;99.90;;;;;;5060395;28;20186;-74
2021/06/16 00:02:46;;;;;;;4.30;3.53;;;17.50;99.90;;;;;;5065301;28;20815;-73
2021/06/16 00:05:23;;;;;;;6.77;3.70;;;17.50;99.90;;;;;;5062202;28;20245;-72
2021/06/16 00:07:49;;;;;;;6.67;3.87;;;17.50;99.90;;;;;;5077989;28;20183;-72
2021/06/16 00:10:18;;;;;;;10.10;4.20;;;17.40;99.90;;;;;;5061855;28;20187;-73
2021/06/16 00:12:45;;;;;;;6.90;3.80;;;17.40;99.90;;;;;;5056921;28;20215;-73
2021/06/16 00:15:36;;;;;;;8.60;4.10;;;17.30;99.90;;;;;;5059292;28;20203;-72
2021/06/16 00:18:03;;;;;;;12.10;4.07;;;17.30;99.90;;;;;;5060085;28;20766;-74
2021/06/16 00:20:30;;;;;;;6.10;3.90;;;17.30;99.90;;;;;;5055685;28;20755;-73
2021/06/16 00:22:57;;;;;;;6.00;3.70;;;17.20;99.90;;;;;;5055853;28;20206;-73
2021/06/16 00:25:25;;;;;;;5.97;3.57;;;17.20;99.90;;;;;;5043232;28;20747;-73
2021/06/16 00:27:52;;;;;;;7.13;4.07;;;17.20;99.90;;;;;;5041681;28;20543;-73
2021/06/16 00:30:19;;;;;;;7.27;3.83;;;17.20;99.90;;;;;;5046376;28;20238;-73
2021/06/16 00:32:45;;;;;;;4.47;3.77;;;17.20;99.90;;;;;;5060718;28;20317;-73
2021/06/16 00:35:20;;;;;;;5.73;3.37;;;17.10;99.90;;;;;;5057842;28;20198;-73
2021/06/16 00:37:52;;;;;;;7.77;3.97;;;17.10;99.90;;;;;;5063216;28;20187;-73
2021/06/16 00:40:24;;;;;;;6.00;3.93;;;17.10;99.90;;;;;;5062248;28;20543;-73
2021/06/16 00:42:51;;;;;;;8.67;3.70;;;17.10;99.90;;;;;;5060577;28;20516;-71
2021/06/16 00:45:19;;;;;;;6.53;4.00;;;17.00;99.90;;;;;;5064438;28;20218;-72
2021/06/16 00:47:46;;;;;;;6.37;3.77;;;16.90;99.90;;;;;;5059980;28;20195;-73
2021/06/16 00:50:13;;;;;;;8.10;4.07;;;16.90;99.90;;;;;;5057346;28;20657;-74
2021/06/16 00:52:41;;;;;;;12.10;3.90;;;16.90;99.90;;;;;;5062888;28;20240;-72
2021/06/16 00:55:08;;;;;;;8.90;4.30;;;16.90;99.90;;;;;;5048448;28;20231;-72
2021/06/16 00:57:35;;;;;;;7.67;3.90;;;17.00;99.90;;;;;;5064507;28;20197;-73
2021/06/16 01:00:14;;;;;;;5.90;4.10;;;17.00;99.90;;;;;;5043103;28;20186;-76
2021/06/16 01:03:07;;;;;;;10.00;4.00;;;17.10;99.90;;;;;;5061981;28;20265;-74
2021/06/16 01:06:01;;;;;;;7.00;3.70;;;17.00;99.90;;;;;;5063347;28;20229;-73
2021/06/16 01:08:33;;;;;;;7.03;3.87;;;17.10;99.90;;;;;;5066148;28;20247;-73
2021/06/16 01:11:05;;;;;;;9.33;3.53;;;17.10;99.90;;;;;;5075424;28;20187;-74
2021/06/16 01:13:54;;;;;;;6.77;4.00;;;17.00;99.90;;;;;;5062165;28;21224;-74
2021/06/16 01:16:40;;;;;;;6.50;3.80;;;17.00;99.90;;;;;;5064271;28;20196;-73
2021/06/16 01:19:59;;;;;;;7.53;3.33;;;17.00;99.90;;;;;;5048458;28;20241;-74
2021/06/16 01:22:50;;;;;;;6.20;4.07;;;17.00;99.90;;;;;;5044371;28;20186;-74
2021/06/16 01:25:49;;;;;;;9.17;4.10;;;17.00;99.90;;;;;;5063713;28;20272;-73
2021/06/16 01:28:21;;;;;;;6.10;3.77;;;17.00;99.90;;;;;;5054775;28;20206;-73
2021/06/16 01:30:49;;;;;;;5.10;3.40;;;16.90;99.90;;;;;;5060107;28;20180;-73
2021/06/16 01:33:18;;;;;;;6.13;3.57;;;17.00;99.90;;;;;;5065262;28;20179;-73
2021/06/16 01:35:47;;;;;;;4.93;3.17;;;16.90;99.90;;;;;;5063248;28;20187;-73
2021/06/16 01:38:16;;;;;;;7.97;3.73;;;16.90;99.90;;;;;;5063899;28;20270;-74
2021/06/16 01:40:46;;;;;;;8.67;4.10;;;16.90;99.90;;;;;;5063550;28;20293;-74
2021/06/16 01:43:13;;;;;;;8.07;3.90;;;16.90;99.90;;;;;;5071528;28;20195;-74
2021/06/16 01:45:42;;;;;;;10.50;4.37;;;17.00;99.90;;;;;;5047709;28;20214;-74
2021/06/16 01:48:14;;;;;;;7.87;4.17;;;17.00;99.90;;;;;;5062119;28;20501;-74
2021/06/16 01:50:43;;;;;;;5.53;4.10;;;17.10;99.90;;;;;;5061369;28;20184;-74
2021/06/16 01:53:11;;;;;;;7.70;3.77;;;17.00;99.90;;;;;;5061677;28;20529;-74
2021/06/16 01:55:39;;;;;;;10.27;4.30;;;17.00;99.90;;;;;;5065943;28;20191;-73
2021/06/16 01:58:07;;;;;;;5.83;3.43;;;16.90;99.90;;;;;;5057586;28;20324;-75
2021/06/16 02:00:39;;;;;;;9.03;4.30;;;16.90;99.90;;;;;;5063675;28;20183;-74
2021/06/16 02:03:06;;;;;;;6.67;4.07;;;16.90;99.90;;;;;;5059826;28;20285;-74
2021/06/16 02:05:34;;;;;;;6.50;4.00;;;16.80;99.90;;;;;;5042728;28;20584;-74
2021/06/16 02:08:10;;;;;;;6.47;3.20;;;16.80;99.90;;;;;;5061935;28;20186;-74
2021/06/16 02:10:44;;;;;;;6.23;3.80;;;16.80;99.90;;;;;;5064228;28;20558;-74
2021/06/16 02:13:14;;;;;;;5.00;3.80;;;16.90;99.90;;;;;;5060151;28;20269;-74
2021/06/16 02:16:07;;;;;;;6.33;3.50;;;16.90;99.90;;;;;;5047163;28;20218;-74
2021/06/16 02:19:02;;;;;;;4.87;3.90;;;16.90;99.90;;;;;;5060105;28;20241;-74
2021/06/16 02:21:28;;;;;;;6.03;3.67;;;17.10;99.90;;;;;;5061401;28;20229;-75
2021/06/16 02:23:55;;;;;;;5.97;3.80;;;17.10;99.90;;;;;;5060995;28;20187;-74
2021/06/16 02:26:22;;;;;;;6.50;3.60;;;17.10;99.90;;;;;;5045491;28;20300;-75
2021/06/16 02:28:48;;;;;;;6.47;3.73;;;17.10;99.90;;;;;;5041452;28;20179;-74
2021/06/16 02:31:14;;;;;;;10.27;3.17;;;17.00;99.90;;;;;;5041373;28;20909;-74
2021/06/16 02:33:41;;;;;;;5.67;3.67;;;17.00;99.90;;;;;;5046787;28;20320;-74
2021/06/16 02:36:12;;;;;;;9.17;3.87;;;17.10;99.90;;;;;;5063402;28;20278;-74
2021/06/16 02:38:44;;;;;;;7.93;3.63;;;17.10;99.90;;;;;;5058471;28;20662;-74
2021/06/16 02:41:15;;;;;;;5.47;3.67;;;17.10;99.90;;;;;;5062024;28;20222;-74
2021/06/16 02:43:42;;;;;;;6.50;3.23;;;17.10;99.90;;;;;;5055805;28;20614;-75
2021/06/16 02:46:12;;;;;;;7.70;3.33;;;17.30;99.90;;;;;;5063472;28;20879;-74
2021/06/16 02:48:44;;;;;;;3.67;3.10;;;17.20;99.90;;;;;;5061455;28;20203;-74
2021/06/16 02:51:12;;;;;;;8.40;3.50;;;17.10;99.90;;;;;;5060186;28;20194;-74
2021/06/16 02:53:41;;;;;;;6.83;3.83;;;17.00;99.90;;;;;;5058947;28;20752;-74
2021/06/16 02:56:10;;;;;;;6.70;3.67;;;17.10;99.90;;;;;;5042372;28;20217;-75
2021/06/16 02:58:41;;;;;;;5.73;4.00;;;17.20;99.90;;;;;;5061286;28;20185;-74
2021/06/16 03:01:14;;;;;;;6.77;4.03;;;17.40;99.90;;;;;;5061323;28;20244;-74
2021/06/16 03:03:46;;;;;;;5.97;3.60;;;17.40;99.90;;;;;;5085265;28;20612;-74
2021/06/16 03:06:15;;;;;;;6.97;3.83;;;17.30;99.90;;;;;;5057509;28;20219;-74
2021/06/16 03:08:44;;;;;;;5.70;3.50;;;17.30;99.90;;;;;;5059568;28;20206;-74
2021/06/16 03:11:13;;;;;;;7.00;3.80;;;17.30;99.90;;;;;;5047034;28;20184;-74
2021/06/16 03:13:42;;;;;;;6.77;4.23;;;17.30;99.90;;;;;;5046798;28;20189;-75
2021/06/16 03:16:08;;;;;;;4.37;3.30;;;17.30;99.90;;;;;;5059792;28;20610;-74
2021/06/16 03:18:37;;;;;;;8.93;3.50;;;17.20;99.90;;;;;;5045592;28;21265;-73
2021/06/16 03:21:04;;;;;;;6.27;3.43;;;17.30;99.90;;;;;;5073539;28;20289;-72
2021/06/16 03:23:31;;;;;;;4.57;3.60;;;17.30;99.90;;;;;;5061501;28;20659;-73
2021/06/16 03:25:58;;;;;;;5.93;3.40;;;17.30;99.90;;;;;;5044092;28;20721;-72
2021/06/16 03:28:27;;;;;;;5.93;3.67;;;17.40;99.90;;;;;;5064658;28;20183;-74
2021/06/16 03:30:58;;;;;;;6.43;3.67;;;17.40;99.90;;;;;;5040267;28;20194;-73
2021/06/16 03:33:25;;;;;;;4.77;3.13;;;17.50;99.90;;;;;;5056407;28;20197;-74
2021/06/16 03:35:52;;;;;;;5.57;3.30;;;17.50;99.90;;;;;;5058360;28;20229;-74
2021/06/16 03:38:18;;;;;;;7.97;3.43;;;17.60;99.90;;;;;;5061223;28;20194;-73
2021/06/16 03:40:49;;;;;;;5.07;3.47;;;17.60;99.90;;;;;;5060040;28;20202;-73
2021/06/16 03:43:17;;;;;;;6.60;3.27;;;17.70;99.90;;;;;;5058131;28;20195;-73
2021/06/16 03:45:45;;;;;;;4.83;3.00;;;17.70;99.90;;;;;;5051415;28;20243;-73
2021/06/16 03:48:19;;;;;;;9.63;3.60;;;17.70;99.90;;;;;;5062253;28;20317;-73
2021/06/16 03:50:47;;;;;;;5.70;3.20;;;17.80;99.90;;;;;;5060894;28;20258;-73
2021/06/16 03:53:15;;;;;;;5.53;3.10;;;17.90;99.90;;;;;;5062675;28;20236;-73
2021/06/16 03:55:45;;;;;;;7.43;3.10;;;18.10;99.90;;;;;;5058165;28;20927;-73
2021/06/16 03:58:13;;;;;;;7.77;2.90;;;18.20;99.90;;;;;;5058844;28;20202;-76
2021/06/16 04:00:41;;;;;;;5.27;3.00;;;18.30;99.90;;;;;;5047202;28;20187;-74
2021/06/16 04:03:11;;;;;;;5.60;2.87;;;18.40;99.90;;;;;;5060920;28;20186;-75
2021/06/16 04:05:38;;;;;;;8.23;3.23;;;18.50;99.90;;;;;;5058788;28;20234;-74
2021/06/16 04:08:07;;;;;;;6.97;3.07;;;18.60;99.90;;;;;;5063101;28;20206;-74
2021/06/16 04:10:35;;;;;;;7.87;2.83;;;18.60;99.90;;;;;;5055422;28;20607;-74
2021/06/16 04:13:06;;;;;;;7.17;2.63;;;18.70;99.90;;;;;;5048029;28;20204;-75
2021/06/16 04:15:32;;;;;;;6.50;2.67;;;18.80;99.90;;;;;;5066752;28;20224;-75
2021/06/16 04:17:59;;;;;;;4.10;2.37;;;18.80;99.90;;;;;;5067543;28;20198;-74
2021/06/16 04:20:27;;;;;;;3.50;2.77;;;18.90;99.90;;;;;;5065861;28;20649;-75
2021/06/16 04:22:55;;;;;;;3.50;2.40;;;19.00;99.90;;;;;;5061444;28;20186;-75
2021/06/16 04:25:23;;;;;;;8.23;2.70;;;19.10;99.90;;;;;;5061914;28;20202;-74
2021/06/16 04:27:55;;;;;;;7.77;2.20;;;19.20;99.90;;;;;;5046263;28;20232;-74
2021/06/16 04:30:23;;;;;;;6.87;2.73;;;19.20;99.90;;;;;;5046578;28;20206;-74
2021/06/16 04:32:51;;;;;;;3.47;2.50;;;19.20;99.90;;;;;;5061378;28;20689;-74
2021/06/16 04:35:19;;;;;;;4.60;2.37;;;19.30;99.90;;;;;;5045333;28;20740;-74
2021/06/16 04:37:47;;;;;;;3.33;2.37;;;19.20;99.90;;;;;;5065800;28;20191;-74
2021/06/16 04:40:14;;;;;;;4.70;2.30;;;19.20;99.90;;;;;;5063946;28;20193;-74
2021/06/16 04:42:40;;;;;;;3.43;2.40;;;19.20;99.90;;;;;;5085946;28;20686;-74
2021/06/16 04:45:08;;;;;;;4.93;2.37;;;19.20;99.90;;;;;;5066550;28;20207;-73
2021/06/16 04:47:35;;;;;;;5.17;2.60;;;19.20;99.90;;;;;;5060533;28;20397;-75
2021/06/16 04:50:06;;;;;;;6.60;2.40;;;19.20;99.90;;;;;;5057773;28;20187;-74
2021/06/16 04:52:33;;;;;;;4.33;2.37;;;19.20;99.90;;;;;;5062772;28;20600;-73
2021/06/16 04:54:59;;;;;;;5.13;2.50;;;19.20;99.90;;;;;;5064605;28;20182;-75
2021/06/16 04:57:25;;;;;;;5.10;2.30;;;19.30;99.90;;;;;;5064385;28;20183;-76
2021/06/16 04:59:51;;;;;;;4.97;2.43;;;19.20;99.90;;;;;;5063696;28;20195;-74
2021/06/16 05:02:18;;;;;;;5.17;2.60;;;19.40;99.90;;;;;;5066523;28;20182;-73
2021/06/16 05:04:44;;;;;;;7.30;2.73;;;19.50;99.90;;;;;;5044581;28;20292;-75
2021/06/16 05:07:11;;;;;;;6.17;2.43;;;19.60;99.90;;;;;;5062547;28;20191;-73
2021/06/16 05:09:37;;;;;;;7.03;2.37;;;19.70;99.90;;;;;;5061945;28;20270;-75
2021/06/16 05:12:06;;;;;;;3.53;2.40;;;19.60;99.90;;;;;;5077997;28;20263;-74
2021/06/16 05:14:33;;;;;;;7.27;2.80;;;19.70;99.90;;;;;;5060679;28;20197;-75
2021/06/16 05:16:59;;;;;;;4.77;2.60;;;19.80;99.90;;;;;;5065324;28;20623;-74
2021/06/16 05:19:25;;;;;;;8.27;2.43;;;19.80;99.90;;;;;;5047546;28;20188;-74
2021/06/16 05:21:52;;;;;;;8.73;2.30;;;19.70;99.90;;;;;;5046258;28;20226;-74
2021/06/16 05:24:19;;;;;;;7.77;2.17;;;19.70;99.90;;;;;;5030096;28;20264;-75
2021/06/16 05:26:46;;;;;;;6.43;2.63;;;19.70;99.90;;;;;;5032377;28;20230;-74
2021/06/16 05:29:12;;;;;;;6.27;2.37;;;20.00;99.90;;;;;;5057605;28;20298;-75
2021/06/16 05:31:39;;;;;;;7.20;2.43;;;20.10;99.90;;;;;;5059000;28;20663;-74
2021/06/16 05:34:05;;;;;;;7.77;2.23;;;20.30;99.90;;;;;;5056981;28;20196;-75
2021/06/16 05:36:32;;;;;;;10.93;2.30;;;20.50;99.90;;;;;;5057927;28;20204;-74
2021/06/16 05:39:00;;;;;;;7.20;2.67;;;20.70;99.90;;;;;;5058421;28;20589;-74
2021/06/16 05:41:27;;;;;;;11.90;2.50;;;20.90;99.90;;;;;;5056495;28;20218;-73
2021/06/16 05:43:53;;;;;;;8.00;2.53;;;21.00;99.90;;;;;;5057561;28;20914;-73
2021/06/16 05:46:19;;;;;;;6.90;2.50;;;20.90;99.90;;;;;;5059424;28;20214;-73
2021/06/16 05:48:46;;;;;;;6.57;2.07;;;20.80;99.90;;;;;;5070114;28;20837;-71
2021/06/16 05:51:12;;;;;;;6.67;2.10;;;20.80;99.90;;;;;;5057767;28;20419;-73
2021/06/16 05:53:38;;;;;;;3.73;1.60;;;20.90;99.90;;;;;;5061404;28;20180;-72
2021/06/16 05:56:05;;;;;;;3.87;1.70;;;21.00;99.90;;;;;;5061994;28;20618;-70
2021/06/16 05:58:31;;;;;;;9.70;2.33;;;21.10;99.90;;;;;;5057842;28;20202;-73
2021/06/16 06:00:58;;;;;;;8.20;2.10;;;21.00;99.90;;;;;;5057581;28;20539;-71
2021/06/16 06:03:26;;;;;;;7.27;2.10;;;21.00;99.90;;;;;;5064215;28;20198;-74
2021/06/16 06:05:52;;;;;;;7.93;1.90;;;21.10;99.90;;;;;;5054897;28;20214;-72
2021/06/16 06:08:18;;;;;;;8.40;2.13;;;21.20;99.90;;;;;;5055086;28;20195;-76
2021/06/16 06:10:45;;;;;;;4.10;1.73;;;21.30;99.90;;;;;;5056442;28;20211;-74
2021/06/16 06:13:11;;;;;;;7.27;1.87;;;21.50;99.90;;;;;;5063885;28;20659;-73
2021/06/16 06:15:37;;;;;;;5.00;1.30;;;21.50;99.90;;;;;;5042657;28;20283;-73
2021/06/16 06:18:04;;;;;;;5.50;1.80;;;21.70;99.90;;;;;;5065181;28;20201;-74
2021/06/16 06:20:30;;;;;;;6.47;2.10;;;22.00;99.90;;;;;;5064523;28;20245;-73
2021/06/16 06:22:56;;;;;;;4.50;1.70;;;22.00;99.90;;;;;;5060241;28;20203;-74
2021/06/16 06:25:24;;;;;;;7.43;2.60;;;21.90;99.90;;;;;;5045817;28;20293;-73
2021/06/16 06:27:50;;;;;;;5.97;2.10;;;21.90;99.90;;;;;;5060659;28;20190;-73
2021/06/16 06:30:16;;;;;;;7.50;1.90;;;22.00;99.90;;;;;;5057718;28;20206;-73
2021/06/16 06:32:43;;;;;;;7.43;1.90;;;22.30;99.90;;;;;;5043539;28;20198;-72
2021/06/16 06:35:10;;;;;;;6.50;1.97;;;22.30;99.90;;;;;;5055422;28;20192;-73
2021/06/16 06:37:36;;;;;;;7.00;2.00;;;22.20;99.90;;;;;;5054908;28;20273;-73
2021/06/16 06:40:05;;;;;;;5.97;1.73;;;22.10;99.90;;;;;;5059107;28;20348;-73
2021/06/16 06:42:31;;;;;;;8.83;2.10;;;22.10;99.90;;;;;;5057927;28;20179;-73
2021/06/16 06:44:58;;;;;;;11.37;2.10;;;22.10;99.90;;;;;;5045389;28;20207;-73
2021/06/16 06:47:26;;;;;;;7.80;2.30;;;22.00;99.90;;;;;;5058888;28;20179;-73
2021/06/16 06:49:53;;;;;;;7.00;1.97;;;21.60;99.90;;;;;;5055398;28;21672;-72
2021/06/16 06:52:20;;;;;;;5.43;2.00;;;21.60;99.90;;;;;;5060616;28;20192;-72
2021/06/16 06:54:46;;;;;;;3.37;1.77;;;21.90;99.90;;;;;;5059729;28;20232;-73
2021/06/16 06:57:13;;;;;;;8.83;2.23;;;21.90;99.90;;;;;;5059460;28;20298;-72
2021/06/16 06:59:39;;;;;;;6.10;1.87;;;21.90;99.90;;;;;;5061031;28;20188;-72
2021/06/16 07:02:05;;;;;;;12.00;2.20;;;21.90;99.90;;;;;;5050760;28;20195;-73
2021/06/16 07:04:32;;;;;;;7.70;2.13;;;22.00;99.90;;;;;;5054156;28;20202;-72
2021/06/16 07:06:58;;;;;;;8.40;2.27;;;22.00;99.90;;;;;;5055106;28;20574;-73
2021/06/16 07:09:25;;;;;;;16.30;2.60;;;22.00;99.90;;;;;;5044936;28;20248;-72
2021/06/16 07:11:52;;;;;;;7.50;2.07;;;22.00;99.90;;;;;;5044912;28;20278;-73
2021/06/16 07:14:19;;;;;;;12.27;2.73;;;22.30;99.90;;;;;;5059374;28;20196;-74
2021/06/16 07:16:45;;;;;;;5.47;2.47;;;22.50;99.90;;;;;;5059802;28;20259;-74
2021/06/16 07:19:12;;;;;;;5.03;1.77;;;22.40;99.90;;;;;;5060731;28;20194;-73
2021/06/16 07:21:38;;;;;;;7.40;2.13;;;22.40;99.90;;;;;;5053699;28;20287;-73
2021/06/16 07:24:05;;;;;;;7.83;2.10;;;22.40;99.90;;;;;;5066168;28;20282;-73
2021/06/16 07:26:32;;;;;;;15.53;2.10;;;22.40;99.90;;;;;;5043701;28;20221;-73
2021/06/16 07:28:58;;;;;;;6.87;1.70;;;22.30;99.90;;;;;;5039659;28;20274;-73
2021/06/16 07:31:24;;;;;;;3.90;1.60;;;22.60;99.90;;;;;;5058011;28;20194;-73
2021/06/16 07:33:51;;;;;;;5.33;1.83;;;22.70;99.90;;;;;;5042003;28;20198;-73
2021/06/16 07:36:17;;;;;;;7.50;1.70;;;22.70;99.90;;;;;;5055749;28;20594;-73
2021/06/16 07:38:43;;;;;;;6.27;1.97;;;22.60;99.90;;;;;;5055251;28;20828;-72
2021/06/16 07:41:10;;;;;;;4.07;1.40;;;22.60;99.90;;;;;;5056672;28;20630;-74
2021/06/16 07:43:36;;;;;;;5.27;1.57;;;22.70;99.90;;;;;;5058246;28;20290;-74
2021/06/16 07:46:03;;;;;;;4.53;1.70;;;22.70;99.90;;;;;;5056172;28;20721;-75
2021/06/16 07:48:29;;;;;;;7.17;1.67;;;22.70;99.90;;;;;;5057428;28;20654;-74
2021/06/16 07:50:55;;;;;;;3.27;1.60;;;23.00;99.90;;;;;;5056955;28;20527;-74
2021/06/16 07:53:23;;;;;;;5.33;1.57;;;23.20;99.90;;;;;;5061922;28;20191;-74
2021/06/16 07:55:51;;;;;;;7.23;1.80;;;23.00;99.90;;;;;;5061824;28;20250;-74
2021/06/16 07:58:20;;;;;;;7.60;1.60;;;23.00;99.90;;;;;;5073789;28;20810;-75
2021/06/16 08:00:47;;;;;;;2.57;1.60;;;23.10;99.90;;;;;;5042588;28;20187;-75
2021/06/16 08:03:14;;;;;;;7.80;1.73;;;23.20;99.90;;;;;;5057495;28;20342;-75
2021/06/16 08:05:40;;;;;;;8.63;1.90;;;23.30;99.90;;;;;;5059513;28;20215;-74
2021/06/16 08:08:07;;;;;;;11.77;3.10;;;23.20;99.90;;;;;;5041171;28;20192;-73
2021/06/16 08:10:34;;;;;;;7.10;3.03;;;23.20;99.90;;;;;;5061034;28;20237;-73
2021/06/16 08:13:00;;;;;;;6.93;2.53;;;23.20;99.90;;;;;;5062445;28;20198;-74
2021/06/16 08:15:27;;;;;;;8.17;1.70;;;23.00;99.90;;;;;;5061118;28;20187;-75
2021/06/16 08:17:55;;;;;;;9.50;1.90;;;23.00;99.90;;;;;;5059243;28;20179;-74
2021/06/16 08:20:21;;;;;;;4.60;1.57;;;23.20;99.90;;;;;;5056031;28;20195;-74
2021/06/16 08:22:48;;;;;;;3.67;1.60;;;23.30;99.90;;;;;;5059090;28;20884;-74
2021/06/16 08:25:14;;;;;;;4.97;1.73;;;23.40;99.90;;;;;;5081233;28;20210;-74
2021/06/16 08:27:42;;;;;;;6.93;1.73;;;23.50;99.90;;;;;;5056035;28;20299;-72
2021/06/16 08:30:11;;;;;;;5.43;1.80;;;23.60;99.90;;;;;;5044118;28;20187;-72
2021/06/16 08:32:38;;;;;;;5.07;1.70;;;23.50;99.90;;;;;;5058791;28;20187;-72
2021/06/16 08:35:05;;;;;;;5.27;1.60;;;23.40;99.90;;;;;;5039503;28;20214;-73
2021/06/16 08:37:31;;;;;;;4.30;1.70;;;23.50;99.90;;;;;;5059858;28;20214;-72
2021/06/16 08:39:58;;;;;;;6.03;1.80;;;23.50;99.90;;;;;;5057056;28;20282;-72
2021/06/16 08:42:27;;;;;;;7.63;1.67;;;23.30;99.90;;;;;;5057878;28;20221;-72
2021/06/16 08:44:56;;;;;;;7.20;1.60;;;23.40;99.90;;;;;;5058067;28;20219;-74
2021/06/16 08:47:24;;;;;;;8.70;1.63;;;23.60;99.90;;;;;;5044545;28;20194;-72
2021/06/16 08:49:53;;;;;;;4.63;1.55;;;23.80;99.90;;;;;;5059674;28;20187;-72
2021/06/16 08:52:20;;;;;;;4.65;1.35;;;23.90;99.90;;;;;;5058209;28;20919;-72
2021/06/16 08:54:47;;;;;;;7.05;1.70;;;23.80;99.90;;;;;;5060603;28;20252;-72
2021/06/16 08:57:13;;;;;;;5.22;1.65;;;24.20;99.90;;;;;;5061956;28;20671;-72
2021/06/16 08:59:39;;;;;;;13.57;2.10;;;24.30;99.90;;;;;;5059875;28;20215;-72
2021/06/16 09:02:06;;;;;;;81.95;4.47;;;24.30;99.90;;;;;;5058702;28;20194;-72
2021/06/16 09:04:48;;;;;;;10.27;2.70;;;24.00;99.90;;;;;;5063477;28;20238;-73
2021/06/16 09:07:25;;;;;;;30.50;2.63;;;24.20;99.90;;;;;;5063470;28;20186;-73
2021/06/16 09:10:18;;;;;;;6.53;1.80;;;24.40;99.90;;;;;;5057641;28;20225;-73
2021/06/16 09:12:57;;;;;;;12.15;2.05;;;24.00;99.90;;;;;;5060530;28;20639;-73
2021/06/16 09:15:30;;;;;;;11.07;2.30;;;23.80;99.90;;;;;;5058651;28;20198;-73
2021/06/16 09:18:14;;;;;;;13.23;2.33;;;23.30;99.90;;;;;;5058075;28;20298;-73
2021/06/16 09:20:47;;;;;;;9.50;2.10;;;23.40;99.90;;;;;;5044773;28;20184;-73
2021/06/16 09:23:23;;;;;;;7.20;1.90;;;23.90;99.90;;;;;;5042904;28;20202;-74
2021/06/16 09:26:20;;;;;;;11.23;2.10;;;23.30;99.90;;;;;;5058376;28;20207;-73
2021/06/16 09:28:51;;;;;;;4.50;1.90;;;23.30;99.90;;;;;;5048537;28;20843;-72
2021/06/16 09:31:21;;;;;;;4.75;1.88;;;23.50;99.90;;;;;;5047749;28;20880;-72
2021/06/16 09:33:48;;;;;;;7.27;1.70;;;24.10;99.90;;;;;;5063462;28;20183;-72
2021/06/16 09:36:22;;;;;;;9.10;2.13;;;23.90;99.90;;;;;;5058484;28;20191;-73
2021/06/16 09:38:50;;;;;;;9.90;2.40;;;23.80;99.90;;;;;;5060470;28;20206;-73
2021/06/16 09:41:22;;;;;;;7.10;1.93;;;23.80;99.90;;;;;;5062460;28;20179;-71
2021/06/16 09:43:54;;;;;;;8.63;1.90;;;24.00;99.90;;;;;;5063143;28;20195;-73
2021/06/16 09:46:21;;;;;;;8.20;2.72;;;23.80;99.90;;;;;;5062067;28;20432;-72
2021/06/16 09:48:49;;;;;;;6.53;1.90;;;23.60;99.90;;;;;;5048950;28;20186;-73
2021/06/16 09:51:37;;;;;;;6.77;2.00;;;23.80;99.90;;;;;;5059988;28;20189;-73
2021/06/16 09:54:18;;;;;;;5.60;1.92;;;24.10;99.90;;;;;;5063468;28;20232;-72
2021/06/16 09:56:59;;;;;;;7.30;2.45;;;24.10;99.90;;;;;;5084708;28;20218;-72
2021/06/16 09:59:47;;;;;;;4.18;1.65;;;24.10;99.90;;;;;;5056515;28;20603;-73
2021/06/16 10:02:23;;;;;;;4.82;1.67;;;24.30;99.90;;;;;;5055989;28;20202;-73
2021/06/16 10:04:59;;;;;;;7.68;1.73;;;24.00;99.90;;;;;;5062869;28;20214;-72
2021/06/16 10:07:28;;;;;;;4.27;1.83;;;23.60;99.90;;;;;;5058450;28;20217;-73
2021/06/16 10:09:56;;;;;;;6.33;1.80;;;23.10;99.90;;;;;;5059751;28;20187;-73
2021/06/16 10:12:30;;;;;;;5.33;1.50;;;23.10;99.90;;;;;;5050978;28;20282;-73
2021/06/16 10:14:59;;;;;;;4.27;1.80;;;23.50;99.90;;;;;;5051940;28;20732;-74
2021/06/16 10:17:26;;;;;;;7.27;2.00;;;23.60;99.90;;;;;;5057430;28;20210;-72
2021/06/16 10:19:53;;;;;;;7.50;2.20;;;23.80;99.90;;;;;;5045264;28;20258;-74
2021/06/16 10:22:22;;;;;;;3.53;1.67;;;24.10;99.90;;;;;;5044619;28;20205;-74
2021/06/16 10:24:52;;;;;;;3.87;2.03;;;24.10;99.90;;;;;;5052862;28;20325;-72
2021/06/16 10:27:37;;;;;;;3.43;1.60;;;23.80;99.90;;;;;;5044689;28;20324;-74
2021/06/16 10:30:13;;;;;;;7.47;2.00;;;23.20;99.90;;;;;;5055599;28;20235;-73
2021/06/16 10:32:44;;;;;;;5.23;2.00;;;23.00;99.90;;;;;;5053851;28;20543;-73
2021/06/16 10:35:14;;;;;;;7.27;2.20;;;23.20;99.90;;;;;;5058427;28;20240;-73
2021/06/16 10:37:45;;;;;;;10.23;1.98;;;23.60;99.90;;;;;;5059157;28;20218;-72
2021/06/16 10:40:26;;;;;;;8.80;2.50;;;24.00;99.90;;;;;;5050918;28;20689;-73
2021/06/16 10:43:02;;;;;;;10.40;2.17;;;24.20;99.90;;;;;;5054633;28;20198;-72
2021/06/16 10:45:35;;;;;;;7.67;2.17;;;23.50;99.90;;;;;;5057379;28;20223;-72
2021/06/16 10:48:08;;;;;;;6.73;1.87;;;23.00;99.90;;;;;;5072810;28;20493;-72
2021/06/16 10:50:51;;;;;;;8.80;1.80;;;23.10;99.90;;;;;;5055381;28;20187;-73
2021/06/16 10:53:24;;;;;;;12.83;2.20;;;23.00;99.90;;;;;;5049024;28;20228;-73
2021/06/16 10:58:25;;;;;;;8.90;2.03;;;22.90;99.90;;;;;;5059285;28;20187;-73
2021/06/16 11:01:17;;;;;;;6.30;1.80;;;23.00;99.90;;;;;;5043362;28;20195;-73
2021/06/16 11:03:47;;;;;;;7.33;1.90;;;22.70;99.90;;;;;;5053587;28;20203;-73
2021/06/16 11:06:32;;;;;;;6.83;2.27;;;22.90;99.90;;;;;;5057836;28;20280;-74
2021/06/16 11:09:14;;;;;;;5.40;1.80;;;23.10;99.90;;;;;;5045104;28;20214;-74
2021/06/16 11:11:53;;;;;;;7.23;1.90;;;23.20;99.90;;;;;;5059023;28;20193;-73
2021/06/16 11:14:35;;;;;;;8.57;1.80;;;23.40;99.90;;;;;;5045111;28;20190;-74
2021/06/16 11:17:06;;;;;;;4.50;2.00;;;23.50;99.90;;;;;;5055178;28;20941;-74
2021/06/16 11:19:35;;;;;;;7.60;1.87;;;23.00;99.90;;;;;;5061370;28;20532;-74
2021/06/16 11:22:25;;;;;;;7.63;1.90;;;22.80;99.90;;;;;;5053949;28;20211;-74
2021/06/16 11:25:20;;;;;;;6.73;1.80;;;23.00;99.90;;;;;;5056036;28;20710;-74
2021/06/16 11:28:21;;;;;;;7.57;2.37;;;23.00;99.90;;;;;;5057562;28;20194;-75
2021/06/16 11:30:56;;;;;;;10.50;2.77;;;23.20;99.90;;;;;;5053219;28;20261;-75
2021/06/16 11:33:31;;;;;;;5.23;2.10;;;23.40;99.90;;;;;;5062266;28;20666;-73
2021/06/16 11:36:38;;;;;;;6.37;1.67;;;23.30;99.90;;;;;;5059670;28;20195;-73
2021/06/16 11:39:07;;;;;;;5.40;1.90;;;23.00;99.90;;;;;;5050064;28;20219;-73
2021/06/16 11:41:34;;;;;;;8.10;1.80;;;23.10;99.90;;;;;;5053322;28;20182;-73
2021/06/16 11:44:12;;;;;;;6.80;2.17;;;23.10;99.90;;;;;;5053098;28;20282;-73
2021/06/16 11:46:43;;;;;;;7.40;1.80;;;22.90;99.90;;;;;;5052661;28;20245;-73
2021/06/16 11:49:25;;;;;;;11.83;2.53;;;23.60;99.90;;;;;;5044194;28;20256;-73
2021/06/16 11:52:03;;;;;;;9.93;2.17;;;23.40;99.90;;;;;;5055000;28;20198;-73
2021/06/16 11:54:38;;;;;;;5.93;1.60;;;23.30;99.90;;;;;;5044250;28;20347;-72
2021/06/16 11:57:14;;;;;;;8.77;2.10;;;23.30;99.90;;;;;;5036233;28;20260;-74
2021/06/16 11:59:49;;;;;;;8.73;2.10;;;23.50;99.90;;;;;;4897288;28;20206;-74
2021/06/16 12:02:22;;;;;;;11.13;2.00;;;23.50;99.90;;;;;;4945739;28;20197;-72
2021/06/16 12:05:04;;;;;;;6.97;2.22;;;23.50;99.90;;;;;;5046479;28;20295;-73
2021/06/16 12:07:40;;;;;;;6.40;1.80;;;23.50;99.90;;;;;;5061682;28;20201;-73
2021/06/16 12:10:33;;;;;;;6.93;1.80;;;23.40;99.90;;;;;;4894620;28;20210;-74
2021/06/16 12:13:05;;;;;;;3.87;1.90;;;23.50;99.90;;;;;;5061088;28;20192;-72
2021/06/16 12:15:40;;;;;;;4.63;1.80;;;23.70;99.90;;;;;;5059752;28;20199;-72
2021/06/16 12:18:14;;;;;;;7.00;1.73;;;23.90;99.90;;;;;;5060319;28;20187;-73
2021/06/16 12:20:52;;;;;;;7.57;1.90;;;23.60;99.90;;;;;;4902680;28;20199;-74
2021/06/16 12:23:34;;;;;;;4.73;1.80;;;23.40;99.90;;;;;;4949398;28;20215;-72
2021/06/16 12:26:24;;;;;;;6.05;1.60;;;23.90;99.90;;;;;;5044696;28;20364;-73
2021/06/16 12:28:57;;;;;;;4.45;1.40;;;24.00;99.90;;;;;;5058700;28;20667;-73
2021/06/16 12:31:30;;;;;;;6.03;1.55;;;23.90;99.90;;;;;;5058431;28;20207;-73
2021/06/16 12:36:29;;;;;;;4.93;1.48;;;24.00;99.90;;;;;;5061076;28;20240;-73
2021/06/16 12:39:13;;;;;;;3.28;1.65;;;24.00;99.90;;;;;;5047450;28;20218;-73
2021/06/16 12:41:59;;;;;;;8.07;1.57;;;24.30;99.90;;;;;;5062568;28;20829;-74
2021/06/16 12:44:41;;;;;;;5.82;1.58;;;24.10;99.90;;;;;;5075392;28;20195;-73
2021/06/16 12:47:13;;;;;;;7.85;1.80;;;24.00;99.90;;;;;;5062906;28;20202;-72
2021/06/16 12:49:42;;;;;;;6.30;1.80;;;24.10;99.90;;;;;;5059836;28;20208;-73
2021/06/16 12:52:12;;;;;;;4.95;1.50;;;23.90;99.90;;;;;;5057395;28;20271;-73
2021/06/16 12:54:44;;;;;;;4.90;1.37;;;23.90;99.90;;;;;;5060461;28;20197;-72
2021/06/16 12:57:17;;;;;;;5.43;1.60;;;23.80;99.90;;;;;;5056334;28;20616;-73
2021/06/16 12:59:55;;;;;;;8.03;1.60;;;23.70;99.90;;;;;;5072911;28;20309;-73
2021/06/16 13:02:35;;;;;;;3.83;1.20;;;23.60;99.90;;;;;;5062638;28;20600;-73
2021/06/16 13:05:07;;;;;;;4.83;1.43;;;23.60;99.90;;;;;;5062792;28;20215;-72
2021/06/16 13:07:45;;;;;;;5.40;1.60;;;23.60;99.90;;;;;;5063863;28;20260;-73
2021/06/16 13:10:17;;;;;;;8.02;1.60;;;24.00;99.90;;;;;;5057431;28;20194;-74